Costa Magica — IBQQ — position and weather

sailwx.info

Track history (hours):
 
Tides and Currents Weather Stations Pressure Air Temp Water Temp Dewpoint Dewpoint Depression Visibility Wind Speed Wind Dir Waves Ship Positions

Costa Magica

Last reported at 2019-Sep-21 03:54 UTC. Time now 2019-Sep-21 11:35 UTC.
Position N 40°58' E 001°27'.

Type: Ship. MMSI: 247113300.

Date/timePositionNaut miles runAvg speedWind from/ knotsBaromVisibWave heightAir tempDewpointWater temp
2019-Sep-21 03:54N 40°58' E 001°27'4 9.7
2019-Sep-21 03:28N 40°58' E 001°32'4 9.7
2019-Sep-21 03:00N 40°58' E 001°38'5 9.7
2019-Sep-21 02:30N 40°59' E 001°45'510.8
2019-Sep-21 02:00N 40°59' E 001°52'611.2
2019-Sep-21 01:30N 40°59' E 001°59'611.4
2019-Sep-21 01:00N 40°59' E 002°07'611.1
2019-Sep-21 00:30N 40°59' E 002°14'610.8
2019-Sep-20 23:58N 40°60' E 002°22'511.0
2019-Sep-20 23:30N 41°02' E 002°28'510.9
2019-Sep-20 23:00N 41°06' E 002°32'611.6
2019-Sep-20 22:30N 41°10' E 002°38'612.1
2019-Sep-20 22:00N 41°14' E 002°45'611.9
2019-Sep-20 21:30N 41°17' E 002°51'711.5
2019-Sep-20 20:53N 41°21' E 002°59'411.0
2019-Sep-20 20:30N 41°23' E 003°04'511.0
2019-Sep-20 20:01N 41°26' E 003°10'611.5
2019-Sep-20 19:29N 41°29' E 003°17'711.9
2019-Sep-20 18:55N 41°33' E 003°24'612.1
2019-Sep-20 18:24N 41°36' E 003°31'512.2
2019-Sep-20 18:01N 41°39' E 003°37'611.9
2019-Sep-20 17:30N 41°42' E 003°44'611.6
2019-Sep-20 16:56N 41°46' E 003°51'511.4
2019-Sep-20 16:31N 41°48' E 003°56'13311.5
2019-Sep-20 04:58N 42°45' E 006°39'612.4
2019-Sep-20 04:28N 42°50' E 006°45'612.5
2019-Sep-20 03:59N 42°53' E 006°52'612.5
2019-Sep-20 03:30N 42°57' E 006°58'612.3
2019-Sep-20 03:01N 43°01' E 007°04'612.0
2019-Sep-20 02:30N 43°05' E 007°10'612.1
2019-Sep-20 02:00N 43°09' E 007°16'612.0
2019-Sep-20 01:31N 43°13' E 007°23'612.1
2019-Sep-20 01:00N 43°17' E 007°29'612.1
2019-Sep-20 00:31N 43°21' E 007°35'611.9
2019-Sep-20 00:01N 43°25' E 007°41'612.2
2019-Sep-19 23:30N 43°29' E 007°48'612.7
2019-Sep-19 23:01N 43°33' E 007°54'612.4
2019-Sep-19 22:30N 43°38' E 008°00'713.1
2019-Sep-19 22:01N 43°42' E 008°07'612.7
2019-Sep-19 21:31N 43°47' E 008°13'612.4
2019-Sep-19 21:00N 43°51' E 008°19'611.9
2019-Sep-19 20:31N 43°55' E 008°25'611.6
2019-Sep-19 20:01N 43°59' E 008°31'611.5
2019-Sep-19 19:31N 44°03' E 008°36'611.6
2019-Sep-19 19:01N 44°07' E 008°42'611.5
2019-Sep-19 18:31N 44°12' E 008°48'611.5
2019-Sep-19 18:01N 44°16' E 008°53'611.3
2019-Sep-19 17:31N 44°21' E 008°57'4 8.5
2019-Sep-19 17:01N 44°24' E 008°55'0 0.4
2019-Sep-19 16:28N 44°25' E 008°55'0 0.0
2019-Sep-19 15:58N 44°25' E 008°55'0 0.0
2019-Sep-19 15:28N 44°25' E 008°55'0 0.0
2019-Sep-19 14:58N 44°25' E 008°55'0 0.0
2019-Sep-19 14:28N 44°25' E 008°55'0 0.0
2019-Sep-19 14:00N 44°25' E 008°55'0 0.0
2019-Sep-19 13:30N 44°25' E 008°55'0 0.0
2019-Sep-19 13:00N 44°25' E 008°55'0 0.0
2019-Sep-19 12:30N 44°25' E 008°55'0 0.0
2019-Sep-19 12:00N 44°25' E 008°55'0 0.0
2019-Sep-19 11:30N 44°25' E 008°55'0 0.0
2019-Sep-19 11:00N 44°25' E 008°55'0 0.0
2019-Sep-19 10:30N 44°25' E 008°55'0 0.0
2019-Sep-19 10:00N 44°25' E 008°55'0 0.0
2019-Sep-19 09:30N 44°25' E 008°55'0 0.0
2019-Sep-19 09:00N 44°25' E 008°55'0 0.0
2019-Sep-19 08:30N 44°25' E 008°55'0 0.0
2019-Sep-19 08:00N 44°25' E 008°55'0 0.0
2019-Sep-19 07:30N 44°25' E 008°55'0 0.0
2019-Sep-19 07:00N 44°25' E 008°55'0 0.0
2019-Sep-19 06:30N 44°25' E 008°55'0 0.1
2019-Sep-19 06:00N 44°25' E 008°55'1 1.7
2019-Sep-19 05:30N 44°24' E 008°55'2 4.0
2019-Sep-19 05:00N 44°22' E 008°57'5 9.7
2019-Sep-19 04:31N 44°18' E 008°58'815.8
2019-Sep-19 04:01N 44°12' E 008°50'815.9
2019-Sep-19 03:30N 44°07' E 008°42'816.2
2019-Sep-19 03:01N 44°01' E 008°34'816.1
2019-Sep-19 02:31N 43°55' E 008°26'815.9
2019-Sep-19 02:01N 43°50' E 008°18'815.7
2019-Sep-19 01:30N 43°44' E 008°10'815.7
2019-Sep-19 01:01N 43°39' E 008°02'815.4
2019-Sep-19 00:31N 43°34' E 007°54'815.7
2019-Sep-19 00:00N 43°30' E 007°45'815.8
2019-Sep-18 23:30N 43°26' E 007°35'815.7
2019-Sep-18 23:01N 43°22' E 007°26'815.8
2019-Sep-18 22:30N 43°17' E 007°17'815.6
2019-Sep-18 22:01N 43°13' E 007°08'815.4
2019-Sep-18 21:31N 43°09' E 006°59'815.4
2019-Sep-18 21:00N 43°06' E 006°50'915.4
2019-Sep-18 20:27N 43°01' E 006°40'6014.1
2019-Sep-18 16:12N 43°10' E 005°19'314.8
2019-Sep-18 15:58N 43°13' E 005°17'38 2.4
2019-Sep-18 00:17N 42°36' E 005°05'512.0
2019-Sep-17 23:53N 42°31' E 005°07'712.0
2019-Sep-17 23:16N 42°24' E 005°09'411.9
2019-Sep-17 22:57N 42°21' E 005°10'611.9
2019-Sep-17 22:29N 42°15' E 005°12'611.9
2019-Sep-17 22:01N 42°10' E 005°14'1411.9
2019-Sep-17 20:51N 41°56' E 005°18'1311.9
2019-Sep-17 19:46N 41°44' E 005°22'3611.6
2019-Sep-17 16:41N 41°09' E 005°32'211.0
2019-Sep-17 16:31N 41°07' E 005°31'711.1
2019-Sep-17 15:54N 41°05' E 005°23'811.7
2019-Sep-17 15:13N 41°03' E 005°12'311.7
2019-Sep-17 14:56N 41°03' E 005°08'3011.5
2019-Sep-17 12:18N 40°57' E 004°29'5711.8
2019-Sep-17 07:30N 40°47' E 003°15'1711.1
2019-Sep-17 05:57N 40°44' E 002°53'611.1
2019-Sep-17 05:23N 40°42' E 002°45'410.7
2019-Sep-17 05:00N 40°42' E 002°39'710.9
2019-Sep-17 04:22N 40°40' E 002°31'610.8
2019-Sep-17 03:50N 40°39' E 002°23'410.9
2019-Sep-17 03:28N 40°39' E 002°18'510.2
2019-Sep-17 02:56N 40°34' E 002°13'611.2
2019-Sep-17 02:22N 40°28' E 002°11'511.3
2019-Sep-17 01:57N 40°24' E 002°10'611.3
2019-Sep-17 01:24N 40°18' E 002°08'5810.7
2019-Sep-16 20:02N 39°20' E 002°04'211.6
2019-Sep-16 19:51N 39°19' E 002°06'411.5
2019-Sep-16 19:30N 39°16' E 002°09'611.6
2019-Sep-16 18:59N 39°11' E 002°15'1310.7
2019-Sep-16 17:46N 39°20' E 002°27'311.5
2019-Sep-16 17:30N 39°23' E 002°30'611.6
2019-Sep-16 17:00N 39°27' E 002°34'611.7
2019-Sep-16 16:30N 39°32' E 002°39'1 2.0
2019-Sep-16 15:59N 39°33' E 002°38'0 0.0
2019-Sep-16 15:29N 39°33' E 002°38'0 0.0
2019-Sep-16 14:59N 39°33' E 002°38'0 0.0
2019-Sep-16 14:29N 39°33' E 002°38'0 0.0
2019-Sep-16 13:59N 39°33' E 002°38'0 0.0
2019-Sep-16 13:29N 39°33' E 002°38'0 0.0
2019-Sep-16 13:00N 39°33' E 002°38'0 0.0
2019-Sep-16 12:30N 39°33' E 002°38'0 0.0
2019-Sep-16 12:00N 39°33' E 002°38'0 0.0
2019-Sep-16 11:30N 39°33' E 002°38'0 0.0
2019-Sep-16 11:00N 39°33' E 002°38'0 0.0
2019-Sep-16 10:30N 39°33' E 002°38'0 0.0
2019-Sep-16 10:00N 39°33' E 002°38'0 0.0
2019-Sep-16 09:30N 39°33' E 002°38'0 0.0
2019-Sep-16 09:00N 39°33' E 002°38'0 0.0
2019-Sep-16 08:30N 39°33' E 002°38'0 0.0
2019-Sep-16 08:00N 39°33' E 002°38'0 0.0
2019-Sep-16 07:30N 39°33' E 002°38'0 0.0
2019-Sep-16 07:00N 39°33' E 002°38'0 0.0
2019-Sep-16 06:30N 39°33' E 002°38'0 0.0
2019-Sep-16 06:00N 39°33' E 002°38'0 0.0
2019-Sep-16 05:30N 39°33' E 002°38'1 1.9
2019-Sep-16 05:00N 39°33' E 002°39'4 7.4
2019-Sep-16 04:30N 39°30' E 002°38'612.1
2019-Sep-16 04:00N 39°25' E 002°33'511.0
2019-Sep-16 03:30N 39°25' E 002°25'4911.9
2019-Sep-15 23:23N 40°13' E 002°12'2112.7
2019-Sep-15 21:42N 40°35' E 002°12'312.1
2019-Sep-15 21:28N 40°37' E 002°12'613.6
2019-Sep-15 21:01N 40°44' E 002°11'714.8
2019-Sep-15 20:31N 40°51' E 002°11'815.1
2019-Sep-15 20:01N 40°59' E 002°11'815.5
2019-Sep-15 19:30N 41°06' E 002°11'714.3
2019-Sep-15 19:00N 41°14' E 002°11'612.7
2019-Sep-15 18:30N 41°20' E 002°10'2 3.0
2019-Sep-15 18:00N 41°21' E 002°11'0 0.0
2019-Sep-15 17:27N 41°21' E 002°11'0 0.0
2019-Sep-15 17:00N 41°21' E 002°11'0 0.0
2019-Sep-15 16:30N 41°21' E 002°11'0 0.0
2019-Sep-15 16:00N 41°21' E 002°11'0 0.0
2019-Sep-15 15:30N 41°21' E 002°11'0 0.0
2019-Sep-15 15:00N 41°21' E 002°11'0 0.0
2019-Sep-15 14:30N 41°21' E 002°11'0 0.0
2019-Sep-15 14:00N 41°21' E 002°11'0 0.0
2019-Sep-15 13:30N 41°21' E 002°11'0 0.0
2019-Sep-15 13:00N 41°21' E 002°11'0 0.0
2019-Sep-15 12:27N 41°21' E 002°11'0 0.0
2019-Sep-15 12:00N 41°21' E 002°11'1 1.2
2019-Sep-15 11:30N 41°21' E 002°10'4 9.0
2019-Sep-15 11:00N 41°16' E 002°12'817.0
2019-Sep-15 10:30N 41°17' E 002°23'1019.1
2019-Sep-15 10:00N 41°18' E 002°36'1019.7
2019-Sep-15 09:30N 41°22' E 002°48'1019.8
2019-Sep-15 09:00N 41°26' E 002°60'1019.6
2019-Sep-15 08:30N 41°31' E 003°11'1019.0
2019-Sep-15 08:00N 41°35' E 003°23'919.0
2019-Sep-15 07:30N 41°39' E 003°34'1019.0
2019-Sep-15 07:00N 41°43' E 003°46'918.8
2019-Sep-15 06:30N 41°47' E 003°57'918.8
2019-Sep-15 06:00N 41°51' E 004°09'919.0
2019-Sep-15 05:30N 41°55' E 004°20'1019.0
2019-Sep-15 05:00N 41°59' E 004°32'1019.1
2019-Sep-15 04:30N 42°03' E 004°43'1019.1
2019-Sep-15 04:00N 42°07' E 004°55'1119.1
2019-Sep-15 03:26N 42°12' E 005°08'5519.0
2019-Sep-15 00:33N 42°35' E 006°15'219.0
2019-Sep-15 00:28N 42°36' E 006°17'1518.9
2019-Sep-14 23:40N 42°44' E 006°35'318.9
2019-Sep-14 23:30N 42°46' E 006°38'1019.3
2019-Sep-14 23:00N 42°53' E 006°48'1019.4
2019-Sep-14 22:30N 42°59' E 006°57'1019.1
2019-Sep-14 22:00N 43°05' E 007°07'918.9
2019-Sep-14 21:30N 43°12' E 007°17'1019.0
2019-Sep-14 21:00N 43°18' E 007°26'1019.0
2019-Sep-14 20:30N 43°25' E 007°35'918.7
2019-Sep-14 20:00N 43°30' E 007°46'918.9
2019-Sep-14 19:30N 43°37' E 007°56'918.8
2019-Sep-14 19:00N 43°43' E 008°05'918.7
2019-Sep-14 18:30N 43°50' E 008°14'918.4
2019-Sep-14 18:00N 43°58' E 008°20'919.0
2019-Sep-14 17:30N 44°07' E 008°26'918.7
2019-Sep-14 17:00N 44°15' E 008°31'4 7.6
2019-Sep-14 16:30N 44°19' E 008°30'0 1.0
2019-Sep-14 16:01N 44°19' E 008°29'0 0.0
2019-Sep-14 15:28N 44°19' E 008°29'0 0.0
2019-Sep-14 14:58N 44°19' E 008°29'0 0.0
2019-Sep-14 14:28N 44°19' E 008°29'0 0.0
2019-Sep-14 14:01N 44°19' E 008°29'0 0.0
2019-Sep-14 13:31N 44°19' E 008°29'0 0.0
2019-Sep-14 13:01N 44°19' E 008°29'0 0.0
2019-Sep-14 12:30N 44°19' E 008°29'0 0.0
2019-Sep-14 12:00N 44°19' E 008°29'0 0.0
2019-Sep-14 11:30N 44°19' E 008°29'0 0.0
2019-Sep-14 11:00N 44°19' E 008°29'0 0.0
2019-Sep-14 10:30N 44°19' E 008°29'0 0.0
2019-Sep-14 10:01N 44°19' E 008°29'0 0.0
2019-Sep-14 09:31N 44°19' E 008°29'0 0.0
2019-Sep-14 09:00N 44°19' E 008°29'0 0.0
2019-Sep-14 08:31N 44°19' E 008°29'0 0.0
2019-Sep-14 08:00N 44°19' E 008°29'0 0.0
2019-Sep-14 07:30N 44°19' E 008°29'0 0.0
2019-Sep-14 07:01N 44°19' E 008°29'0 0.0
2019-Sep-14 06:30N 44°19' E 008°29'0 0.0
2019-Sep-14 06:00N 44°19' E 008°29'0 0.0
2019-Sep-14 05:30N 44°19' E 008°29'2 3.1
2019-Sep-14 05:00N 44°19' E 008°32'713.4
2019-Sep-14 04:30N 44°12' E 008°34'917.6
2019-Sep-14 04:00N 44°05' E 008°27'918.3
2019-Sep-14 03:30N 43°57' E 008°20'918.4
2019-Sep-14 03:00N 43°50' E 008°13'918.4
2019-Sep-14 02:31N 43°42' E 008°06'917.6
2019-Sep-14 02:01N 43°35' E 007°58'917.0
2019-Sep-14 01:30N 43°31' E 007°48'713.8
2019-Sep-14 01:01N 43°28' E 007°40'713.7
2019-Sep-14 00:30N 43°24' E 007°32'713.6
2019-Sep-14 00:00N 43°21' E 007°24'713.6
2019-Sep-13 23:30N 43°17' E 007°16'713.3
2019-Sep-13 23:00N 43°13' E 007°08'713.3
2019-Sep-13 22:30N 43°10' E 007°00'713.3
2019-Sep-13 22:00N 43°06' E 006°53'713.7
2019-Sep-13 21:30N 43°03' E 006°45'713.4
2019-Sep-13 21:00N 42°59' E 006°37'713.4
2019-Sep-13 20:29N 42°55' E 006°29'5512.5
2019-Sep-13 16:07N 43°12' E 005°17'213.3
2019-Sep-13 15:56N 43°14' E 005°17'153 7.8
2019-Sep-12 20:22N 41°29' E 002°46'720.2
2019-Sep-12 20:00N 41°26' E 002°37'1019.9
2019-Sep-12 19:30N 41°21' E 002°26'1019.0
2019-Sep-12 19:00N 41°15' E 002°15'611.0
2019-Sep-12 18:30N 41°19' E 002°10'2 4.1
2019-Sep-12 18:00N 41°21' E 002°10'0 0.0
2019-Sep-12 17:30N 41°21' E 002°10'0 0.0
2019-Sep-12 17:00N 41°21' E 002°10'0 0.0
2019-Sep-12 16:30N 41°21' E 002°10'0 0.0
2019-Sep-12 16:00N 41°21' E 002°10'0 0.0
2019-Sep-12 15:30N 41°21' E 002°10'0 0.0
2019-Sep-12 15:00N 41°21' E 002°10'0 0.0
2019-Sep-12 14:30N 41°21' E 002°10'0 0.0
2019-Sep-12 14:00N 41°21' E 002°10'0 0.0
2019-Sep-12 13:30N 41°21' E 002°10'0 0.0
2019-Sep-12 13:00N 41°21' E 002°10'0 0.0
2019-Sep-12 12:30N 41°21' E 002°10'0 0.0
2019-Sep-12 12:00N 41°21' E 002°10'0 0.0
2019-Sep-12 11:30N 41°21' E 002°10'0 0.0
2019-Sep-12 11:00N 41°21' E 002°10'0 0.0
2019-Sep-12 10:30N 41°21' E 002°10'0 0.0
2019-Sep-12 10:01N 41°21' E 002°10'1 1.4
2019-Sep-12 09:31N 41°21' E 002°10'4 8.3
2019-Sep-12 09:00N 41°17' E 002°11'1019.3
2019-Sep-12 08:30N 41°07' E 002°07'1020.3
2019-Sep-12 08:00N 40°59' E 002°01'1019.4
2019-Sep-12 07:30N 40°50' E 001°54'19418.4
2019-Sep-11 20:56N 38°00' W 000°09'919.8
2019-Sep-11 20:30N 37°53' W 000°14'1119.8
2019-Sep-11 19:58N 37°44' W 000°22'919.8
2019-Sep-11 19:30N 37°37' W 000°28'  
Track history (hours):
 
Tides and Currents Weather Stations Pressure Air Temp Water Temp Dewpoint Dewpoint Depression Visibility Wind Speed Wind Dir Waves Ship Positions

Costa Magica

Last reported at 2019-Sep-21 03:54 UTC. Time now 2019-Sep-21 11:35 UTC.
Position N 40°58' E 001°27'.

Type: Ship. MMSI: 247113300.

Date/timePositionNaut miles runAvg speedWind from/ knotsBaromVisibWave heightAir tempDewpointWater temp
2019-Sep-21 03:54N 40°58' E 001°27'4 9.7
2019-Sep-21 03:28N 40°58' E 001°32'4 9.7
2019-Sep-21 03:00N 40°58' E 001°38'5 9.7
2019-Sep-21 02:30N 40°59' E 001°45'510.8
2019-Sep-21 02:00N 40°59' E 001°52'611.2
2019-Sep-21 01:30N 40°59' E 001°59'611.4
2019-Sep-21 01:00N 40°59' E 002°07'611.1
2019-Sep-21 00:30N 40°59' E 002°14'610.8
2019-Sep-20 23:58N 40°60' E 002°22'511.0
2019-Sep-20 23:30N 41°02' E 002°28'510.9
2019-Sep-20 23:00N 41°06' E 002°32'611.6
2019-Sep-20 22:30N 41°10' E 002°38'612.1
2019-Sep-20 22:00N 41°14' E 002°45'611.9
2019-Sep-20 21:30N 41°17' E 002°51'711.5
2019-Sep-20 20:53N 41°21' E 002°59'411.0
2019-Sep-20 20:30N 41°23' E 003°04'511.0
2019-Sep-20 20:01N 41°26' E 003°10'611.5
2019-Sep-20 19:29N 41°29' E 003°17'711.9
2019-Sep-20 18:55N 41°33' E 003°24'612.1
2019-Sep-20 18:24N 41°36' E 003°31'512.2
2019-Sep-20 18:01N 41°39' E 003°37'611.9
2019-Sep-20 17:30N 41°42' E 003°44'611.6
2019-Sep-20 16:56N 41°46' E 003°51'511.4
2019-Sep-20 16:31N 41°48' E 003°56'13311.5
2019-Sep-20 04:58N 42°45' E 006°39'612.4
2019-Sep-20 04:28N 42°50' E 006°45'612.5
2019-Sep-20 03:59N 42°53' E 006°52'612.5
2019-Sep-20 03:30N 42°57' E 006°58'612.3
2019-Sep-20 03:01N 43°01' E 007°04'612.0
2019-Sep-20 02:30N 43°05' E 007°10'612.1
2019-Sep-20 02:00N 43°09' E 007°16'612.0
2019-Sep-20 01:31N 43°13' E 007°23'612.1
2019-Sep-20 01:00N 43°17' E 007°29'612.1
2019-Sep-20 00:31N 43°21' E 007°35'611.9
2019-Sep-20 00:01N 43°25' E 007°41'612.2
2019-Sep-19 23:30N 43°29' E 007°48'612.7
2019-Sep-19 23:01N 43°33' E 007°54'612.4
2019-Sep-19 22:30N 43°38' E 008°00'713.1
2019-Sep-19 22:01N 43°42' E 008°07'612.7
2019-Sep-19 21:31N 43°47' E 008°13'612.4
2019-Sep-19 21:00N 43°51' E 008°19'611.9
2019-Sep-19 20:31N 43°55' E 008°25'611.6
2019-Sep-19 20:01N 43°59' E 008°31'611.5
2019-Sep-19 19:31N 44°03' E 008°36'611.6
2019-Sep-19 19:01N 44°07' E 008°42'611.5
2019-Sep-19 18:31N 44°12' E 008°48'611.5
2019-Sep-19 18:01N 44°16' E 008°53'611.3
2019-Sep-19 17:31N 44°21' E 008°57'4 8.5
2019-Sep-19 17:01N 44°24' E 008°55'0 0.4
2019-Sep-19 16:28N 44°25' E 008°55'0 0.0
2019-Sep-19 15:58N 44°25' E 008°55'0 0.0
2019-Sep-19 15:28N 44°25' E 008°55'0 0.0
2019-Sep-19 14:58N 44°25' E 008°55'0 0.0
2019-Sep-19 14:28N 44°25' E 008°55'0 0.0
2019-Sep-19 14:00N 44°25' E 008°55'0 0.0
2019-Sep-19 13:30N 44°25' E 008°55'0 0.0
2019-Sep-19 13:00N 44°25' E 008°55'0 0.0
2019-Sep-19 12:30N 44°25' E 008°55'0 0.0
2019-Sep-19 12:00N 44°25' E 008°55'0 0.0
2019-Sep-19 11:30N 44°25' E 008°55'0 0.0
2019-Sep-19 11:00N 44°25' E 008°55'0 0.0
2019-Sep-19 10:30N 44°25' E 008°55'0 0.0
2019-Sep-19 10:00N 44°25' E 008°55'0 0.0
2019-Sep-19 09:30N 44°25' E 008°55'0 0.0
2019-Sep-19 09:00N 44°25' E 008°55'0 0.0
2019-Sep-19 08:30N 44°25' E 008°55'0 0.0
2019-Sep-19 08:00N 44°25' E 008°55'0 0.0
2019-Sep-19 07:30N 44°25' E 008°55'0 0.0
2019-Sep-19 07:00N 44°25' E 008°55'0 0.0
2019-Sep-19 06:30N 44°25' E 008°55'0 0.1
2019-Sep-19 06:00N 44°25' E 008°55'1 1.7
2019-Sep-19 05:30N 44°24' E 008°55'2 4.0
2019-Sep-19 05:00N 44°22' E 008°57'5 9.7
2019-Sep-19 04:31N 44°18' E 008°58'815.8
2019-Sep-19 04:01N 44°12' E 008°50'815.9
2019-Sep-19 03:30N 44°07' E 008°42'816.2
2019-Sep-19 03:01N 44°01' E 008°34'816.1
2019-Sep-19 02:31N 43°55' E 008°26'815.9
2019-Sep-19 02:01N 43°50' E 008°18'815.7
2019-Sep-19 01:30N 43°44' E 008°10'815.7
2019-Sep-19 01:01N 43°39' E 008°02'815.4
2019-Sep-19 00:31N 43°34' E 007°54'815.7
2019-Sep-19 00:00N 43°30' E 007°45'815.8
2019-Sep-18 23:30N 43°26' E 007°35'815.7
2019-Sep-18 23:01N 43°22' E 007°26'815.8
2019-Sep-18 22:30N 43°17' E 007°17'815.6
2019-Sep-18 22:01N 43°13' E 007°08'815.4
2019-Sep-18 21:31N 43°09' E 006°59'815.4
2019-Sep-18 21:00N 43°06' E 006°50'915.4
2019-Sep-18 20:27N 43°01' E 006°40'6014.1
2019-Sep-18 16:12N 43°10' E 005°19'314.8
2019-Sep-18 15:58N 43°13' E 005°17'38 2.4
2019-Sep-18 00:17N 42°36' E 005°05'512.0
2019-Sep-17 23:53N 42°31' E 005°07'712.0
2019-Sep-17 23:16N 42°24' E 005°09'411.9
2019-Sep-17 22:57N 42°21' E 005°10'611.9
2019-Sep-17 22:29N 42°15' E 005°12'611.9
2019-Sep-17 22:01N 42°10' E 005°14'1411.9
2019-Sep-17 20:51N 41°56' E 005°18'1311.9
2019-Sep-17 19:46N 41°44' E 005°22'3611.6
2019-Sep-17 16:41N 41°09' E 005°32'211.0
2019-Sep-17 16:31N 41°07' E 005°31'711.1
2019-Sep-17 15:54N 41°05' E 005°23'811.7
2019-Sep-17 15:13N 41°03' E 005°12'311.7
2019-Sep-17 14:56N 41°03' E 005°08'3011.5
2019-Sep-17 12:18N 40°57' E 004°29'5711.8
2019-Sep-17 07:30N 40°47' E 003°15'1711.1
2019-Sep-17 05:57N 40°44' E 002°53'611.1
2019-Sep-17 05:23N 40°42' E 002°45'410.7
2019-Sep-17 05:00N 40°42' E 002°39'710.9
2019-Sep-17 04:22N 40°40' E 002°31'610.8
2019-Sep-17 03:50N 40°39' E 002°23'410.9
2019-Sep-17 03:28N 40°39' E 002°18'510.2
2019-Sep-17 02:56N 40°34' E 002°13'611.2
2019-Sep-17 02:22N 40°28' E 002°11'511.3
2019-Sep-17 01:57N 40°24' E 002°10'611.3
2019-Sep-17 01:24N 40°18' E 002°08'5810.7
2019-Sep-16 20:02N 39°20' E 002°04'211.6
2019-Sep-16 19:51N 39°19' E 002°06'411.5
2019-Sep-16 19:30N 39°16' E 002°09'611.6
2019-Sep-16 18:59N 39°11' E 002°15'1310.7
2019-Sep-16 17:46N 39°20' E 002°27'311.5
2019-Sep-16 17:30N 39°23' E 002°30'611.6
2019-Sep-16 17:00N 39°27' E 002°34'611.7
2019-Sep-16 16:30N 39°32' E 002°39'1 2.0
2019-Sep-16 15:59N 39°33' E 002°38'0 0.0
2019-Sep-16 15:29N 39°33' E 002°38'0 0.0
2019-Sep-16 14:59N 39°33' E 002°38'0 0.0
2019-Sep-16 14:29N 39°33' E 002°38'0 0.0
2019-Sep-16 13:59N 39°33' E 002°38'0 0.0
2019-Sep-16 13:29N 39°33' E 002°38'0 0.0
2019-Sep-16 13:00N 39°33' E 002°38'0 0.0
2019-Sep-16 12:30N 39°33' E 002°38'0 0.0
2019-Sep-16 12:00N 39°33' E 002°38'0 0.0
2019-Sep-16 11:30N 39°33' E 002°38'0 0.0
2019-Sep-16 11:00N 39°33' E 002°38'0 0.0
2019-Sep-16 10:30N 39°33' E 002°38'0 0.0
2019-Sep-16 10:00N 39°33' E 002°38'0 0.0
2019-Sep-16 09:30N 39°33' E 002°38'0 0.0
2019-Sep-16 09:00N 39°33' E 002°38'0 0.0
2019-Sep-16 08:30N 39°33' E 002°38'0 0.0
2019-Sep-16 08:00N 39°33' E 002°38'0 0.0
2019-Sep-16 07:30N 39°33' E 002°38'0 0.0
2019-Sep-16 07:00N 39°33' E 002°38'0 0.0
2019-Sep-16 06:30N 39°33' E 002°38'0 0.0
2019-Sep-16 06:00N 39°33' E 002°38'0 0.0
2019-Sep-16 05:30N 39°33' E 002°38'1 1.9
2019-Sep-16 05:00N 39°33' E 002°39'4 7.4
2019-Sep-16 04:30N 39°30' E 002°38'612.1
2019-Sep-16 04:00N 39°25' E 002°33'511.0
2019-Sep-16 03:30N 39°25' E 002°25'4911.9
2019-Sep-15 23:23N 40°13' E 002°12'2112.7
2019-Sep-15 21:42N 40°35' E 002°12'312.1
2019-Sep-15 21:28N 40°37' E 002°12'613.6
2019-Sep-15 21:01N 40°44' E 002°11'714.8
2019-Sep-15 20:31N 40°51' E 002°11'815.1
2019-Sep-15 20:01N 40°59' E 002°11'815.5
2019-Sep-15 19:30N 41°06' E 002°11'714.3
2019-Sep-15 19:00N 41°14' E 002°11'612.7
2019-Sep-15 18:30N 41°20' E 002°10'2 3.0
2019-Sep-15 18:00N 41°21' E 002°11'0 0.0
2019-Sep-15 17:27N 41°21' E 002°11'0 0.0
2019-Sep-15 17:00N 41°21' E 002°11'0 0.0
2019-Sep-15 16:30N 41°21' E 002°11'0 0.0
2019-Sep-15 16:00N 41°21' E 002°11'0 0.0
2019-Sep-15 15:30N 41°21' E 002°11'0 0.0
2019-Sep-15 15:00N 41°21' E 002°11'0 0.0
2019-Sep-15 14:30N 41°21' E 002°11'0 0.0
2019-Sep-15 14:00N 41°21' E 002°11'0 0.0
2019-Sep-15 13:30N 41°21' E 002°11'0 0.0
2019-Sep-15 13:00N 41°21' E 002°11'0 0.0
2019-Sep-15 12:27N 41°21' E 002°11'0 0.0
2019-Sep-15 12:00N 41°21' E 002°11'1 1.2
2019-Sep-15 11:30N 41°21' E 002°10'4 9.0
2019-Sep-15 11:00N 41°16' E 002°12'817.0
2019-Sep-15 10:30N 41°17' E 002°23'1019.1
2019-Sep-15 10:00N 41°18' E 002°36'1019.7
2019-Sep-15 09:30N 41°22' E 002°48'1019.8
2019-Sep-15 09:00N 41°26' E 002°60'1019.6
2019-Sep-15 08:30N 41°31' E 003°11'1019.0
2019-Sep-15 08:00N 41°35' E 003°23'919.0
2019-Sep-15 07:30N 41°39' E 003°34'1019.0
2019-Sep-15 07:00N 41°43' E 003°46'918.8
2019-Sep-15 06:30N 41°47' E 003°57'918.8
2019-Sep-15 06:00N 41°51' E 004°09'919.0
2019-Sep-15 05:30N 41°55' E 004°20'1019.0
2019-Sep-15 05:00N 41°59' E 004°32'1019.1
2019-Sep-15 04:30N 42°03' E 004°43'1019.1
2019-Sep-15 04:00N 42°07' E 004°55'1119.1
2019-Sep-15 03:26N 42°12' E 005°08'5519.0
2019-Sep-15 00:33N 42°35' E 006°15'219.0
2019-Sep-15 00:28N 42°36' E 006°17'1518.9
2019-Sep-14 23:40N 42°44' E 006°35'318.9
2019-Sep-14 23:30N 42°46' E 006°38'1019.3
2019-Sep-14 23:00N 42°53' E 006°48'1019.4
2019-Sep-14 22:30N 42°59' E 006°57'1019.1
2019-Sep-14 22:00N 43°05' E 007°07'918.9
2019-Sep-14 21:30N 43°12' E 007°17'1019.0
2019-Sep-14 21:00N 43°18' E 007°26'1019.0
2019-Sep-14 20:30N 43°25' E 007°35'918.7
2019-Sep-14 20:00N 43°30' E 007°46'918.9
2019-Sep-14 19:30N 43°37' E 007°56'918.8
2019-Sep-14 19:00N 43°43' E 008°05'918.7
2019-Sep-14 18:30N 43°50' E 008°14'918.4
2019-Sep-14 18:00N 43°58' E 008°20'919.0
2019-Sep-14 17:30N 44°07' E 008°26'918.7
2019-Sep-14 17:00N 44°15' E 008°31'4 7.6
2019-Sep-14 16:30N 44°19' E 008°30'0 1.0
2019-Sep-14 16:01N 44°19' E 008°29'0 0.0
2019-Sep-14 15:28N 44°19' E 008°29'0 0.0
2019-Sep-14 14:58N 44°19' E 008°29'0 0.0
2019-Sep-14 14:28N 44°19' E 008°29'0 0.0
2019-Sep-14 14:01N 44°19' E 008°29'0 0.0
2019-Sep-14 13:31N 44°19' E 008°29'0 0.0
2019-Sep-14 13:01N 44°19' E 008°29'0 0.0
2019-Sep-14 12:30N 44°19' E 008°29'0 0.0
2019-Sep-14 12:00N 44°19' E 008°29'0 0.0
2019-Sep-14 11:30N 44°19' E 008°29'0 0.0
2019-Sep-14 11:00N 44°19' E 008°29'0 0.0
2019-Sep-14 10:30N 44°19' E 008°29'0 0.0
2019-Sep-14 10:01N 44°19' E 008°29'0 0.0
2019-Sep-14 09:31N 44°19' E 008°29'0 0.0
2019-Sep-14 09:00N 44°19' E 008°29'0 0.0
2019-Sep-14 08:31N 44°19' E 008°29'0 0.0
2019-Sep-14 08:00N 44°19' E 008°29'0 0.0
2019-Sep-14 07:30N 44°19' E 008°29'0 0.0
2019-Sep-14 07:01N 44°19' E 008°29'0 0.0
2019-Sep-14 06:30N 44°19' E 008°29'0 0.0
2019-Sep-14 06:00N 44°19' E 008°29'0 0.0
2019-Sep-14 05:30N 44°19' E 008°29'2 3.1
2019-Sep-14 05:00N 44°19' E 008°32'713.4
2019-Sep-14 04:30N 44°12' E 008°34'917.6
2019-Sep-14 04:00N 44°05' E 008°27'918.3
2019-Sep-14 03:30N 43°57' E 008°20'918.4
2019-Sep-14 03:00N 43°50' E 008°13'918.4
2019-Sep-14 02:31N 43°42' E 008°06'917.6
2019-Sep-14 02:01N 43°35' E 007°58'917.0
2019-Sep-14 01:30N 43°31' E 007°48'713.8
2019-Sep-14 01:01N 43°28' E 007°40'713.7
2019-Sep-14 00:30N 43°24' E 007°32'713.6
2019-Sep-14 00:00N 43°21' E 007°24'713.6
2019-Sep-13 23:30N 43°17' E 007°16'713.3
2019-Sep-13 23:00N 43°13' E 007°08'713.3
2019-Sep-13 22:30N 43°10' E 007°00'713.3
2019-Sep-13 22:00N 43°06' E 006°53'713.7
2019-Sep-13 21:30N 43°03' E 006°45'713.4
2019-Sep-13 21:00N 42°59' E 006°37'713.4
2019-Sep-13 20:29N 42°55' E 006°29'5512.5
2019-Sep-13 16:07N 43°12' E 005°17'213.3
2019-Sep-13 15:56N 43°14' E 005°17'153 7.8
2019-Sep-12 20:22N 41°29' E 002°46'720.2
2019-Sep-12 20:00N 41°26' E 002°37'1019.9
2019-Sep-12 19:30N 41°21' E 002°26'1019.0
2019-Sep-12 19:00N 41°15' E 002°15'611.0
2019-Sep-12 18:30N 41°19' E 002°10'2 4.1
2019-Sep-12 18:00N 41°21' E 002°10'0 0.0
2019-Sep-12 17:30N 41°21' E 002°10'0 0.0
2019-Sep-12 17:00N 41°21' E 002°10'0 0.0
2019-Sep-12 16:30N 41°21' E 002°10'0 0.0
2019-Sep-12 16:00N 41°21' E 002°10'0 0.0
2019-Sep-12 15:30N 41°21' E 002°10'0 0.0
2019-Sep-12 15:00N 41°21' E 002°10'0 0.0
2019-Sep-12 14:30N 41°21' E 002°10'0 0.0
2019-Sep-12 14:00N 41°21' E 002°10'0 0.0
2019-Sep-12 13:30N 41°21' E 002°10'0 0.0
2019-Sep-12 13:00N 41°21' E 002°10'0 0.0
2019-Sep-12 12:30N 41°21' E 002°10'0 0.0
2019-Sep-12 12:00N 41°21' E 002°10'0 0.0
2019-Sep-12 11:30N 41°21' E 002°10'0 0.0
2019-Sep-12 11:00N 41°21' E 002°10'0 0.0
2019-Sep-12 10:30N 41°21' E 002°10'0 0.0
2019-Sep-12 10:01N 41°21' E 002°10'1 1.4
2019-Sep-12 09:31N 41°21' E 002°10'4 8.3
2019-Sep-12 09:00N 41°17' E 002°11'1019.3
2019-Sep-12 08:30N 41°07' E 002°07'1020.3
2019-Sep-12 08:00N 40°59' E 002°01'1019.4
2019-Sep-12 07:30N 40°50' E 001°54'19418.4
2019-Sep-11 20:56N 38°00' W 000°09'919.8
2019-Sep-11 20:30N 37°53' W 000°14'1119.8
2019-Sep-11 19:58N 37°44' W 000°22'919.8
2019-Sep-11 19:30N 37°37' W 000°28'  

Dump ship's entire track history